Terminal Aerodrome Forecast
Issued by NWS Rapid City, SD

Home | Current Version | Previous Version | Text Only | Print | Product List | Glossary Off
Versions: 1 2 3 4 5 6 7 8 9 10 11 12 13 14 15 16 17

568
FTUS43 KUNR 170520
TAFRAP
TAF
KRAP 170520Z 1706/1806 13015KT P6SM SCT250 WS020/19045KT
     FM171000 14012KT P6SM SCT250
     FM171400 13014KT P6SM SCT020
     FM172000 36024G34KT 6SM -SHRASN BKN015=

USA.gov is the U.S. government's official web portal to all federal, state and local government web resources and services.